sensor_id;sensor_type;location;lat;lon;timestamp;pressure;altitude;pressure_sealevel;temperature;humidity
63194;BME280;49289;51.670;5.624;2023-05-25T00:00:47;102707.52;;;18.35;54.01
63194;BME280;49289;51.670;5.624;2023-05-25T00:02:34;102695.30;;;18.21;54.18
63194;BME280;49289;51.670;5.624;2023-05-25T00:04:21;102704.63;;;18.33;54.40
63194;BME280;49289;51.670;5.624;2023-05-25T00:06:08;102714.65;;;18.18;54.89
63194;BME280;49289;51.670;5.624;2023-05-25T00:07:55;102708.66;;;18.12;54.97
63194;BME280;49289;51.670;5.624;2023-05-25T00:09:44;102697.75;;;18.17;54.64
63194;BME280;49289;51.670;5.624;2023-05-25T00:11:32;102715.55;;;18.02;55.11
63194;BME280;49289;51.670;5.624;2023-05-25T00:13:20;102680.41;;;18.00;54.64
63194;BME280;49289;51.670;5.624;2023-05-25T00:15:08;102709.30;;;18.22;54.36
63194;BME280;49289;51.670;5.624;2023-05-25T00:16:56;102711.41;;;18.16;54.41
63194;BME280;49289;51.670;5.624;2023-05-25T00:18:44;102702.16;;;18.15;54.57
63194;BME280;49289;51.670;5.624;2023-05-25T00:20:32;102710.02;;;18.31;54.30
63194;BME280;49289;51.670;5.624;2023-05-25T00:22:19;102709.02;;;18.31;53.97
63194;BME280;49289;51.670;5.624;2023-05-25T00:24:08;102691.40;;;18.04;54.34
63194;BME280;49289;51.670;5.624;2023-05-25T00:25:56;102688.02;;;17.97;54.39
63194;BME280;49289;51.670;5.624;2023-05-25T00:27:44;102680.38;;;17.97;54.12
63194;BME280;49289;51.670;5.624;2023-05-25T00:29:32;102706.21;;;17.92;54.90
63194;BME280;49289;51.670;5.624;2023-05-25T00:31:19;102677.55;;;17.88;54.67
63194;BME280;49289;51.670;5.624;2023-05-25T00:33:07;102700.84;;;17.89;54.64
63194;BME280;49289;51.670;5.624;2023-05-25T00:34:54;102712.50;;;17.96;54.69
63194;BME280;49289;51.670;5.624;2023-05-25T00:36:41;102700.09;;;17.95;54.80
63194;BME280;49289;51.670;5.624;2023-05-25T00:38:28;102709.19;;;17.88;54.79
63194;BME280;49289;51.670;5.624;2023-05-25T00:40:16;102702.50;;;17.91;54.50
63194;BME280;49289;51.670;5.624;2023-05-25T00:42:04;102716.53;;;17.99;54.23
63194;BME280;49289;51.670;5.624;2023-05-25T00:43:51;102695.47;;;17.78;54.42
63194;BME280;49289;51.670;5.624;2023-05-25T00:45:39;102708.10;;;17.78;54.58
63194;BME280;49289;51.670;5.624;2023-05-25T00:47:28;102694.30;;;17.64;54.65
63194;BME280;49289;51.670;5.624;2023-05-25T00:49:17;102688.09;;;17.80;54.45
63194;BME280;49289;51.670;5.624;2023-05-25T00:51:03;102700.48;;;17.90;54.68
63194;BME280;49289;51.670;5.624;2023-05-25T00:52:50;102676.83;;;17.75;54.43
63194;BME280;49289;51.670;5.624;2023-05-25T00:54:37;102705.34;;;17.83;54.85
63194;BME280;49289;51.670;5.624;2023-05-25T00:56:28;102691.83;;;17.70;54.95
63194;BME280;49289;51.670;5.624;2023-05-25T00:58:13;102706.72;;;17.71;55.19
63194;BME280;49289;51.670;5.624;2023-05-25T01:00:00;102679.57;;;17.54;55.16
63194;BME280;49289;51.670;5.624;2023-05-25T01:01:47;102712.98;;;17.76;55.29
63194;BME280;49289;51.670;5.624;2023-05-25T01:03:34;102713.77;;;17.58;55.91
63194;BME280;49289;51.670;5.624;2023-05-25T01:05:21;102711.34;;;17.61;55.95
63194;BME280;49289;51.670;5.624;2023-05-25T01:07:09;102711.15;;;17.61;55.91
63194;BME280;49289;51.670;5.624;2023-05-25T01:08:58;102709.77;;;17.52;56.21
63194;BME280;49289;51.670;5.624;2023-05-25T01:10:44;102712.48;;;17.68;55.71
63194;BME280;49289;51.670;5.624;2023-05-25T01:12:33;102716.87;;;17.66;55.24
63194;BME280;49289;51.670;5.624;2023-05-25T01:14:19;102716.61;;;17.60;55.41
63194;BME280;49289;51.670;5.624;2023-05-25T01:16:05;102732.20;;;17.60;55.41
63194;BME280;49289;51.670;5.624;2023-05-25T01:17:52;102719.51;;;17.54;55.20
63194;BME280;49289;51.670;5.624;2023-05-25T01:19:41;102716.72;;;17.53;55.10
63194;BME280;49289;51.670;5.624;2023-05-25T01:21:31;102692.31;;;17.36;54.71
63194;BME280;49289;51.670;5.624;2023-05-25T01:23:17;102730.21;;;17.48;55.24
63194;BME280;49289;51.670;5.624;2023-05-25T01:25:06;102728.02;;;17.49;55.29
63194;BME280;49289;51.670;5.624;2023-05-25T01:26:55;102710.27;;;17.27;55.71
63194;BME280;49289;51.670;5.624;2023-05-25T01:28:43;102729.86;;;17.62;55.12
63194;BME280;49289;51.670;5.624;2023-05-25T01:30:30;102708.94;;;17.41;54.97
63194;BME280;49289;51.670;5.624;2023-05-25T01:32:18;102722.78;;;17.36;54.95
63194;BME280;49289;51.670;5.624;2023-05-25T01:34:06;102704.73;;;17.29;54.96
63194;BME280;49289;51.670;5.624;2023-05-25T01:35:54;102737.15;;;17.45;54.86
63194;BME280;49289;51.670;5.624;2023-05-25T01:37:42;102737.09;;;17.42;54.88
63194;BME280;49289;51.670;5.624;2023-05-25T01:39:32;102745.05;;;17.29;55.33
63194;BME280;49289;51.670;5.624;2023-05-25T01:41:19;102739.40;;;17.39;55.08
63194;BME280;49289;51.670;5.624;2023-05-25T01:43:06;102744.36;;;17.22;55.44
63194;BME280;49289;51.670;5.624;2023-05-25T01:44:53;102741.31;;;17.12;55.86
63194;BME280;49289;51.670;5.624;2023-05-25T01:46:41;102753.25;;;17.12;56.18
63194;BME280;49289;51.670;5.624;2023-05-25T01:48:32;102749.48;;;17.12;55.76
63194;BME280;49289;51.670;5.624;2023-05-25T01:50:21;102752.28;;;17.03;56.26
63194;BME280;49289;51.670;5.624;2023-05-25T01:52:13;102750.39;;;16.99;55.70
63194;BME280;49289;51.670;5.624;2023-05-25T01:53:57;102731.48;;;16.88;55.86
63194;BME280;49289;51.670;5.624;2023-05-25T01:55:46;102732.13;;;16.95;55.55
63194;BME280;49289;51.670;5.624;2023-05-25T01:57:33;102753.31;;;17.08;55.70
63194;BME280;49289;51.670;5.624;2023-05-25T01:59:21;102722.38;;;16.94;55.52
63194;BME280;49289;51.670;5.624;2023-05-25T02:01:09;102746.30;;;16.98;55.87
63194;BME280;49289;51.670;5.624;2023-05-25T02:02:57;102746.23;;;16.81;55.66
63194;BME280;49289;51.670;5.624;2023-05-25T02:04:45;102747.15;;;16.81;55.84
63194;BME280;49289;51.670;5.624;2023-05-25T02:06:32;102743.14;;;16.87;56.02
63194;BME280;49289;51.670;5.624;2023-05-25T02:08:20;102746.31;;;16.89;55.78
63194;BME280;49289;51.670;5.624;2023-05-25T02:10:07;102747.53;;;16.94;55.59
63194;BME280;49289;51.670;5.624;2023-05-25T02:11:55;102717.94;;;16.63;56.01
63194;BME280;49289;51.670;5.624;2023-05-25T02:13:42;102744.13;;;16.75;55.89
63194;BME280;49289;51.670;5.624;2023-05-25T02:15:29;102748.82;;;16.70;55.94
63194;BME280;49289;51.670;5.624;2023-05-25T02:17:16;102751.25;;;16.73;56.06
63194;BME280;49289;51.670;5.624;2023-05-25T02:19:03;102725.25;;;16.63;55.80
63194;BME280;49289;51.670;5.624;2023-05-25T02:20:50;102747.94;;;16.76;55.76
63194;BME280;49289;51.670;5.624;2023-05-25T02:22:37;102743.55;;;16.77;55.80
63194;BME280;49289;51.670;5.624;2023-05-25T02:24:24;102748.63;;;16.71;55.57
63194;BME280;49289;51.670;5.624;2023-05-25T02:26:11;102746.71;;;16.69;55.08
63194;BME280;49289;51.670;5.624;2023-05-25T02:27:58;102730.77;;;16.43;55.53
63194;BME280;49289;51.670;5.624;2023-05-25T02:29:45;102755.77;;;16.57;55.78
63194;BME280;49289;51.670;5.624;2023-05-25T02:31:32;102752.99;;;16.67;55.37
63194;BME280;49289;51.670;5.624;2023-05-25T02:33:19;102738.13;;;16.54;55.58
63194;BME280;49289;51.670;5.624;2023-05-25T02:35:06;102747.09;;;16.50;55.93
63194;BME280;49289;51.670;5.624;2023-05-25T02:36:53;102752.06;;;16.50;55.66
63194;BME280;49289;51.670;5.624;2023-05-25T02:38:40;102740.86;;;16.52;55.64
63194;BME280;49289;51.670;5.624;2023-05-25T02:40:28;102732.70;;;16.56;55.81
63194;BME280;49289;51.670;5.624;2023-05-25T02:42:16;102722.56;;;16.43;56.06
63194;BME280;49289;51.670;5.624;2023-05-25T02:44:03;102747.39;;;16.57;56.15
63194;BME280;49289;51.670;5.624;2023-05-25T02:45:51;102736.26;;;16.60;55.98
63194;BME280;49289;51.670;5.624;2023-05-25T02:47:39;102741.99;;;16.58;55.81
63194;BME280;49289;51.670;5.624;2023-05-25T02:49:26;102754.00;;;16.63;55.87
63194;BME280;49289;51.670;5.624;2023-05-25T02:51:14;102736.73;;;16.50;55.45
63194;BME280;49289;51.670;5.624;2023-05-25T02:53:02;102719.55;;;16.25;55.58
63194;BME280;49289;51.670;5.624;2023-05-25T02:54:50;102740.19;;;16.34;55.56
63194;BME280;49289;51.670;5.624;2023-05-25T02:56:37;102753.23;;;16.35;55.51
63194;BME280;49289;51.670;5.624;2023-05-25T02:58:24;102752.59;;;16.37;55.28
63194;BME280;49289;51.670;5.624;2023-05-25T03:00:12;102741.23;;;16.20;55.27
63194;BME280;49289;51.670;5.624;2023-05-25T03:02:00;102750.44;;;16.32;55.23
63194;BME280;49289;51.670;5.624;2023-05-25T03:03:48;102760.69;;;16.30;55.50
63194;BME280;49289;51.670;5.624;2023-05-25T03:05:35;102756.09;;;16.24;55.51
63194;BME280;49289;51.670;5.624;2023-05-25T03:07:23;102755.19;;;16.26;55.83
63194;BME280;49289;51.670;5.624;2023-05-25T03:09:11;102753.89;;;16.28;55.66
63194;BME280;49289;51.670;5.624;2023-05-25T03:10:59;102752.45;;;16.18;56.22
63194;BME280;49289;51.670;5.624;2023-05-25T03:12:47;102762.72;;;16.12;56.61
63194;BME280;49289;51.670;5.624;2023-05-25T03:14:34;102753.84;;;16.17;56.29
63194;BME280;49289;51.670;5.624;2023-05-25T03:16:21;102767.28;;;16.11;56.55
63194;BME280;49289;51.670;5.624;2023-05-25T03:18:08;102740.71;;;16.16;56.15
63194;BME280;49289;51.670;5.624;2023-05-25T03:19:55;102754.20;;;16.11;56.84
63194;BME280;49289;51.670;5.624;2023-05-25T03:21:42;102770.14;;;16.37;56.48
63194;BME280;49289;51.670;5.624;2023-05-25T03:23:29;102771.23;;;16.23;56.81
63194;BME280;49289;51.670;5.624;2023-05-25T03:25:16;102751.84;;;16.34;56.37
63194;BME280;49289;51.670;5.624;2023-05-25T03:27:04;102771.48;;;16.34;56.18
63194;BME280;49289;51.670;5.624;2023-05-25T03:28:52;102781.69;;;16.32;56.23
63194;BME280;49289;51.670;5.624;2023-05-25T03:30:40;102771.88;;;16.28;56.01
63194;BME280;49289;51.670;5.624;2023-05-25T03:32:27;102749.73;;;16.29;55.52
63194;BME280;49289;51.670;5.624;2023-05-25T03:34:14;102786.23;;;16.34;55.15
63194;BME280;49289;51.670;5.624;2023-05-25T03:36:01;102794.62;;;16.39;55.71
63194;BME280;49289;51.670;5.624;2023-05-25T03:37:48;102788.12;;;16.19;56.21
63194;BME280;49289;51.670;5.624;2023-05-25T03:39:35;102796.90;;;16.17;56.91
63194;BME280;49289;51.670;5.624;2023-05-25T03:41:22;102788.16;;;16.09;57.04
63194;BME280;49289;51.670;5.624;2023-05-25T03:43:10;102784.16;;;16.04;57.27
63194;BME280;49289;51.670;5.624;2023-05-25T03:44:58;102785.23;;;16.03;57.21
63194;BME280;49289;51.670;5.624;2023-05-25T03:46:46;102795.02;;;16.02;57.49
63194;BME280;49289;51.670;5.624;2023-05-25T03:48:34;102787.05;;;16.12;57.61
63194;BME280;49289;51.670;5.624;2023-05-25T03:50:22;102811.59;;;16.18;57.86
63194;BME280;49289;51.670;5.624;2023-05-25T03:52:09;102801.34;;;16.18;57.63
63194;BME280;49289;51.670;5.624;2023-05-25T03:53:57;102797.79;;;16.13;57.68
63194;BME280;49289;51.670;5.624;2023-05-25T03:55:45;102806.44;;;16.25;57.39
63194;BME280;49289;51.670;5.624;2023-05-25T03:57:33;102774.70;;;16.03;57.47
63194;BME280;49289;51.670;5.624;2023-05-25T03:59:21;102776.33;;;16.03;57.32
63194;BME280;49289;51.670;5.624;2023-05-25T04:01:08;102805.07;;;16.29;56.98
63194;BME280;49289;51.670;5.624;2023-05-25T04:02:55;102813.20;;;16.42;56.43
63194;BME280;49289;51.670;5.624;2023-05-25T04:04:42;102805.52;;;16.25;56.35
63194;BME280;49289;51.670;5.624;2023-05-25T04:06:29;102806.77;;;16.25;56.94
63194;BME280;49289;51.670;5.624;2023-05-25T04:08:16;102780.94;;;16.02;57.43
63194;BME280;49289;51.670;5.624;2023-05-25T04:10:04;102799.41;;;16.39;56.91
63194;BME280;49289;51.670;5.624;2023-05-25T04:11:52;102797.59;;;16.32;56.89
63194;BME280;49289;51.670;5.624;2023-05-25T04:13:39;102801.19;;;16.33;56.81
63194;BME280;49289;51.670;5.624;2023-05-25T04:15:26;102800.91;;;16.38;57.25
63194;BME280;49289;51.670;5.624;2023-05-25T04:17:13;102785.90;;;16.28;57.07
63194;BME280;49289;51.670;5.624;2023-05-25T04:19:00;102792.41;;;16.30;57.00
63194;BME280;49289;51.670;5.624;2023-05-25T04:20:47;102770.37;;;16.30;56.83
63194;BME280;49289;51.670;5.624;2023-05-25T04:22:34;102790.34;;;16.40;57.00
63194;BME280;49289;51.670;5.624;2023-05-25T04:24:21;102796.78;;;16.29;57.62
63194;BME280;49289;51.670;5.624;2023-05-25T04:26:08;102798.78;;;16.50;56.63
63194;BME280;49289;51.670;5.624;2023-05-25T04:27:56;102785.20;;;16.36;56.72
63194;BME280;49289;51.670;5.624;2023-05-25T04:29:43;102798.05;;;16.48;56.98
63194;BME280;49289;51.670;5.624;2023-05-25T04:31:31;102805.17;;;16.48;57.22
63194;BME280;49289;51.670;5.624;2023-05-25T04:33:19;102807.62;;;16.58;57.47
63194;BME280;49289;51.670;5.624;2023-05-25T04:35:07;102795.56;;;16.57;57.79
63194;BME280;49289;51.670;5.624;2023-05-25T04:36:54;102789.47;;;16.51;57.83
63194;BME280;49289;51.670;5.624;2023-05-25T04:38:42;102819.83;;;16.68;58.31
63194;BME280;49289;51.670;5.624;2023-05-25T04:40:31;102797.82;;;16.62;58.10
63194;BME280;49289;51.670;5.624;2023-05-25T04:42:19;102827.66;;;16.70;58.01
63194;BME280;49289;51.670;5.624;2023-05-25T04:44:07;102800.06;;;16.57;58.08
63194;BME280;49289;51.670;5.624;2023-05-25T04:45:55;102822.09;;;16.85;57.63
63194;BME280;49289;51.670;5.624;2023-05-25T04:47:42;102826.09;;;16.95;57.61
63194;BME280;49289;51.670;5.624;2023-05-25T04:49:30;102821.99;;;16.88;57.74
63194;BME280;49289;51.670;5.624;2023-05-25T04:51:18;102804.58;;;16.85;57.42
63194;BME280;49289;51.670;5.624;2023-05-25T04:53:06;102833.15;;;17.03;57.80
63194;BME280;49289;51.670;5.624;2023-05-25T04:54:53;102826.70;;;17.04;57.81
63194;BME280;49289;51.670;5.624;2023-05-25T04:56:40;102834.73;;;17.12;57.98
63194;BME280;49289;51.670;5.624;2023-05-25T04:58:27;102826.21;;;17.17;57.60
63194;BME280;49289;51.670;5.624;2023-05-25T05:00:15;102838.41;;;17.31;57.77
63194;BME280;49289;51.670;5.624;2023-05-25T05:02:02;102834.06;;;17.27;57.76
63194;BME280;49289;51.670;5.624;2023-05-25T05:03:49;102836.39;;;17.28;58.01
63194;BME280;49289;51.670;5.624;2023-05-25T05:05:37;102840.42;;;17.28;58.05
63194;BME280;49289;51.670;5.624;2023-05-25T05:07:25;102838.36;;;17.37;58.28
63194;BME280;49289;51.670;5.624;2023-05-25T05:09:13;102833.17;;;17.36;58.38
63194;BME280;49289;51.670;5.624;2023-05-25T05:11:01;102839.70;;;17.44;58.45
63194;BME280;49289;51.670;5.624;2023-05-25T05:12:49;102838.89;;;17.54;58.29
63194;BME280;49289;51.670;5.624;2023-05-25T05:14:37;102822.03;;;17.46;58.30
63194;BME280;49289;51.670;5.624;2023-05-25T05:16:25;102852.80;;;17.61;58.22
63194;BME280;49289;51.670;5.624;2023-05-25T05:18:13;102843.52;;;17.61;58.27
63194;BME280;49289;51.670;5.624;2023-05-25T05:20:01;102844.55;;;17.60;58.48
63194;BME280;49289;51.670;5.624;2023-05-25T05:21:48;102827.70;;;17.45;58.62
63194;BME280;49289;51.670;5.624;2023-05-25T05:23:37;102820.81;;;17.55;58.53
63194;BME280;49289;51.670;5.624;2023-05-25T05:25:25;102824.73;;;17.61;58.88
63194;BME280;49289;51.670;5.624;2023-05-25T05:27:12;102840.28;;;17.48;59.29
63194;BME280;49289;51.670;5.624;2023-05-25T05:28:59;102852.45;;;17.84;58.70
63194;BME280;49289;51.670;5.624;2023-05-25T05:30:46;102854.44;;;17.99;58.78
63194;BME280;49289;51.670;5.624;2023-05-25T05:32:33;102842.03;;;17.89;58.41
63194;BME280;49289;51.670;5.624;2023-05-25T05:34:20;102816.16;;;17.86;58.60
63194;BME280;49289;51.670;5.624;2023-05-25T05:36:08;102857.63;;;18.09;58.61
63194;BME280;49289;51.670;5.624;2023-05-25T05:37:55;102855.34;;;18.14;58.33
63194;BME280;49289;51.670;5.624;2023-05-25T05:39:42;102867.36;;;18.19;58.31
63194;BME280;49289;51.670;5.624;2023-05-25T05:41:29;102834.72;;;18.10;58.24
63194;BME280;49289;51.670;5.624;2023-05-25T05:43:16;102872.03;;;18.42;58.46
63194;BME280;49289;51.670;5.624;2023-05-25T05:45:04;102862.06;;;18.45;58.33
63194;BME280;49289;51.670;5.624;2023-05-25T05:46:52;102839.44;;;18.45;58.22
63194;BME280;49289;51.670;5.624;2023-05-25T05:48:39;102869.72;;;18.51;58.11
63194;BME280;49289;51.670;5.624;2023-05-25T05:50:27;102849.45;;;18.36;58.15
63194;BME280;49289;51.670;5.624;2023-05-25T05:52:15;102860.06;;;18.43;58.45
63194;BME280;49289;51.670;5.624;2023-05-25T05:54:03;102872.05;;;18.28;58.75
63194;BME280;49289;51.670;5.624;2023-05-25T05:55:51;102855.16;;;18.20;58.84
63194;BME280;49289;51.670;5.624;2023-05-25T05:57:38;102872.99;;;18.40;58.80
63194;BME280;49289;51.670;5.624;2023-05-25T05:59:26;102885.73;;;18.44;58.92
63194;BME280;49289;51.670;5.624;2023-05-25T06:01:14;102885.95;;;18.65;58.44
63194;BME280;49289;51.670;5.624;2023-05-25T06:03:02;102843.13;;;18.58;58.17
63194;BME280;49289;51.670;5.624;2023-05-25T06:04:50;102878.05;;;18.89;58.18
63194;BME280;49289;51.670;5.624;2023-05-25T06:06:37;102859.84;;;18.82;57.91
63194;BME280;49289;51.670;5.624;2023-05-25T06:08:24;102855.17;;;18.60;58.18
63194;BME280;49289;51.670;5.624;2023-05-25T06:10:12;102871.30;;;18.89;57.77
63194;BME280;49289;51.670;5.624;2023-05-25T06:11:59;102886.77;;;19.19;57.52
63194;BME280;49289;51.670;5.624;2023-05-25T06:13:46;102848.50;;;18.81;57.76
63194;BME280;49289;51.670;5.624;2023-05-25T06:15:33;102890.66;;;18.74;58.12
63194;BME280;49289;51.670;5.624;2023-05-25T06:17:20;102853.84;;;18.90;57.67
63194;BME280;49289;51.670;5.624;2023-05-25T06:19:07;102889.62;;;19.06;58.01
63194;BME280;49289;51.670;5.624;2023-05-25T06:20:54;102885.86;;;19.34;57.43
63194;BME280;49289;51.670;5.624;2023-05-25T06:22:41;102874.73;;;19.56;57.00
63194;BME280;49289;51.670;5.624;2023-05-25T06:24:28;102881.55;;;19.34;57.13
63194;BME280;49289;51.670;5.624;2023-05-25T06:26:16;102893.53;;;19.11;57.37
63194;BME280;49289;51.670;5.624;2023-05-25T06:28:03;102870.26;;;19.35;56.98
63194;BME280;49289;51.670;5.624;2023-05-25T06:29:51;102897.56;;;19.48;56.90
63194;BME280;49289;51.670;5.624;2023-05-25T06:31:39;102889.67;;;19.57;57.40
63194;BME280;49289;51.670;5.624;2023-05-25T06:33:26;102867.98;;;19.35;56.68
63194;BME280;49289;51.670;5.624;2023-05-25T06:35:14;102902.84;;;19.47;56.69
63194;BME280;49289;51.670;5.624;2023-05-25T06:37:02;102906.27;;;19.78;56.54
63194;BME280;49289;51.670;5.624;2023-05-25T06:38:50;102888.89;;;19.39;56.41
63194;BME280;49289;51.670;5.624;2023-05-25T06:40:39;102909.91;;;19.77;55.98
63194;BME280;49289;51.670;5.624;2023-05-25T06:42:27;102888.13;;;19.28;54.96
63194;BME280;49289;51.670;5.624;2023-05-25T06:44:15;102909.70;;;18.86;56.01
63194;BME280;49289;51.670;5.624;2023-05-25T06:46:02;102920.56;;;19.34;55.69
63194;BME280;49289;51.670;5.624;2023-05-25T06:47:50;102915.50;;;19.25;55.29
63194;BME280;49289;51.670;5.624;2023-05-25T06:49:38;102916.44;;;18.95;55.74
63194;BME280;49289;51.670;5.624;2023-05-25T06:51:25;102916.33;;;18.52;55.90
63194;BME280;49289;51.670;5.624;2023-05-25T06:53:12;102910.83;;;19.04;56.09
63194;BME280;49289;51.670;5.624;2023-05-25T06:54:59;102898.23;;;19.12;55.78
63194;BME280;49289;51.670;5.624;2023-05-25T06:56:46;102895.17;;;19.55;55.28
63194;BME280;49289;51.670;5.624;2023-05-25T06:58:33;102908.39;;;19.67;54.59
63194;BME280;49289;51.670;5.624;2023-05-25T07:00:22;102915.73;;;20.00;54.07
63194;BME280;49289;51.670;5.624;2023-05-25T07:02:10;102917.33;;;19.57;54.23
63194;BME280;49289;51.670;5.624;2023-05-25T07:03:58;102932.14;;;20.18;53.80
63194;BME280;49289;51.670;5.624;2023-05-25T07:05:46;102925.47;;;20.50;53.08
63194;BME280;49289;51.670;5.624;2023-05-25T07:07:34;102885.81;;;20.30;52.54
63194;BME280;49289;51.670;5.624;2023-05-25T07:09:22;102922.08;;;20.21;52.59
63194;BME280;49289;51.670;5.624;2023-05-25T07:11:10;102911.19;;;20.28;52.43
63194;BME280;49289;51.670;5.624;2023-05-25T07:12:57;102899.38;;;20.20;52.66
63194;BME280;49289;51.670;5.624;2023-05-25T07:14:44;102883.53;;;20.29;52.50
63194;BME280;49289;51.670;5.624;2023-05-25T07:16:31;102926.27;;;20.83;52.48
63194;BME280;49289;51.670;5.624;2023-05-25T07:18:18;102866.27;;;20.59;51.74
63194;BME280;49289;51.670;5.624;2023-05-25T07:20:05;102907.36;;;20.49;51.81
63194;BME280;49289;51.670;5.624;2023-05-25T07:21:52;102917.65;;;20.03;52.22
63194;BME280;49289;51.670;5.624;2023-05-25T07:23:39;102892.64;;;20.13;52.62
63194;BME280;49289;51.670;5.624;2023-05-25T07:25:26;102901.23;;;20.89;52.54
63194;BME280;49289;51.670;5.624;2023-05-25T07:27:15;102910.52;;;21.19;50.95
63194;BME280;49289;51.670;5.624;2023-05-25T07:29:03;102931.95;;;21.00;50.68
63194;BME280;49289;51.670;5.624;2023-05-25T07:30:51;102867.27;;;20.79;50.69
63194;BME280;49289;51.670;5.624;2023-05-25T07:32:38;102911.08;;;20.71;51.06
63194;BME280;49289;51.670;5.624;2023-05-25T07:34:25;102934.80;;;20.24;52.12
63194;BME280;49289;51.670;5.624;2023-05-25T07:36:12;102926.63;;;20.84;51.60
63194;BME280;49289;51.670;5.624;2023-05-25T07:38:07;102921.86;;;21.18;51.48
63194;BME280;49289;51.670;5.624;2023-05-25T07:39:54;102924.23;;;21.11;51.05
63194;BME280;49289;51.670;5.624;2023-05-25T07:41:41;102915.71;;;20.78;50.33
63194;BME280;49289;51.670;5.624;2023-05-25T07:43:28;102907.91;;;21.13;51.10
63194;BME280;49289;51.670;5.624;2023-05-25T07:45:16;102920.89;;;21.40;50.31
63194;BME280;49289;51.670;5.624;2023-05-25T07:47:04;102904.47;;;21.46;50.25
63194;BME280;49289;51.670;5.624;2023-05-25T07:48:52;102905.11;;;21.82;49.72
63194;BME280;49289;51.670;5.624;2023-05-25T07:50:40;102931.59;;;21.43;49.58
63194;BME280;49289;51.670;5.624;2023-05-25T07:52:28;102935.61;;;21.51;49.40
63194;BME280;49289;51.670;5.624;2023-05-25T07:54:15;102927.66;;;21.54;50.19
63194;BME280;49289;51.670;5.624;2023-05-25T07:56:02;102925.61;;;21.55;49.71
63194;BME280;49289;51.670;5.624;2023-05-25T07:57:49;102926.80;;;21.56;49.60
63194;BME280;49289;51.670;5.624;2023-05-25T07:59:36;102925.84;;;21.92;49.79
63194;BME280;49289;51.670;5.624;2023-05-25T08:01:23;102924.70;;;21.16;49.36
63194;BME280;49289;51.670;5.624;2023-05-25T08:03:10;102941.15;;;21.07;49.70
63194;BME280;49289;51.670;5.624;2023-05-25T08:04:57;102934.91;;;21.19;49.54
63194;BME280;49289;51.670;5.624;2023-05-25T08:06:44;102942.88;;;21.41;49.39
63194;BME280;49289;51.670;5.624;2023-05-25T08:08:31;102940.47;;;21.98;48.60
63194;BME280;49289;51.670;5.624;2023-05-25T08:10:20;102941.70;;;20.86;48.34
63194;BME280;49289;51.670;5.624;2023-05-25T08:12:08;102942.19;;;21.37;48.21
63194;BME280;49289;51.670;5.624;2023-05-25T08:13:55;102890.28;;;21.59;48.66
63194;BME280;49289;51.670;5.624;2023-05-25T08:15:43;102940.28;;;21.51;48.18
63194;BME280;49289;51.670;5.624;2023-05-25T08:17:31;102923.87;;;21.59;47.96
63194;BME280;49289;51.670;5.624;2023-05-25T08:19:18;102931.97;;;22.19;47.57
63194;BME280;49289;51.670;5.624;2023-05-25T08:21:05;102902.98;;;22.29;47.53
63194;BME280;49289;51.670;5.624;2023-05-25T08:22:53;102938.76;;;22.89;46.87
63194;BME280;49289;51.670;5.624;2023-05-25T08:24:41;102940.61;;;22.81;46.89
63194;BME280;49289;51.670;5.624;2023-05-25T08:26:29;102913.22;;;23.07;46.92
63194;BME280;49289;51.670;5.624;2023-05-25T08:28:18;102921.62;;;23.16;46.22
63194;BME280;49289;51.670;5.624;2023-05-25T08:30:05;102925.91;;;23.23;46.27
63194;BME280;49289;51.670;5.624;2023-05-25T08:31:52;102905.00;;;23.18;45.99
63194;BME280;49289;51.670;5.624;2023-05-25T08:33:39;102937.29;;;23.49;44.97
63194;BME280;49289;51.670;5.624;2023-05-25T08:35:26;102935.38;;;23.46;44.69
63194;BME280;49289;51.670;5.624;2023-05-25T08:37:13;102950.47;;;23.57;44.21
63194;BME280;49289;51.670;5.624;2023-05-25T08:39:00;102932.75;;;23.19;44.00
63194;BME280;49289;51.670;5.624;2023-05-25T08:40:47;102948.76;;;23.75;44.52
63194;BME280;49289;51.670;5.624;2023-05-25T08:42:34;102944.78;;;23.62;44.20
63194;BME280;49289;51.670;5.624;2023-05-25T08:44:21;102958.74;;;23.13;44.46
63194;BME280;49289;51.670;5.624;2023-05-25T08:46:08;102928.58;;;22.98;44.23
63194;BME280;49289;51.670;5.624;2023-05-25T08:47:57;102938.02;;;22.78;44.59
63194;BME280;49289;51.670;5.624;2023-05-25T08:49:43;102950.55;;;23.14;44.45
63194;BME280;49289;51.670;5.624;2023-05-25T08:51:30;102944.40;;;22.15;44.27
63194;BME280;49289;51.670;5.624;2023-05-25T08:53:17;102943.07;;;22.02;45.39
63194;BME280;49289;51.670;5.624;2023-05-25T08:55:05;102958.63;;;21.50;45.87
63194;BME280;49289;51.670;5.624;2023-05-25T08:56:54;102951.10;;;21.62;46.34
63194;BME280;49289;51.670;5.624;2023-05-25T08:58:41;102942.95;;;21.51;46.75
63194;BME280;49289;51.670;5.624;2023-05-25T09:00:30;102970.45;;;21.43;47.39
63194;BME280;49289;51.670;5.624;2023-05-25T09:02:21;102946.75;;;21.83;47.28
63194;BME280;49289;51.670;5.624;2023-05-25T09:04:07;102966.17;;;22.53;47.22
63194;BME280;49289;51.670;5.624;2023-05-25T09:05:55;102942.32;;;22.49;46.36
63194;BME280;49289;51.670;5.624;2023-05-25T09:07:43;102964.84;;;22.10;46.03
63194;BME280;49289;51.670;5.624;2023-05-25T09:09:31;102965.27;;;22.31;45.92
63194;BME280;49289;51.670;5.624;2023-05-25T09:11:19;102946.11;;;21.50;45.04
63194;BME280;49289;51.670;5.624;2023-05-25T09:13:07;102954.89;;;20.99;45.17
63194;BME280;49289;51.670;5.624;2023-05-25T09:14:55;102945.05;;;20.89;45.51
63194;BME280;49289;51.670;5.624;2023-05-25T09:16:42;102949.70;;;21.51;45.99
63194;BME280;49289;51.670;5.624;2023-05-25T09:18:31;102957.29;;;21.78;45.71
63194;BME280;49289;51.670;5.624;2023-05-25T09:20:20;102974.68;;;22.36;45.91
63194;BME280;49289;51.670;5.624;2023-05-25T09:22:07;102973.11;;;22.27;44.54